sensor_id;sensor_type;location;lat;lon;timestamp;P1;durP1;ratioP1;P2;durP2;ratioP2
46765;SDS011;32527;51.986;5.842;2022-07-03T00:02:07;2.80;;;1.48;;
46765;SDS011;32527;51.986;5.842;2022-07-03T00:04:33;2.75;;;1.42;;
46765;SDS011;32527;51.986;5.842;2022-07-03T00:06:59;5.30;;;1.60;;
46765;SDS011;32527;51.986;5.842;2022-07-03T00:09:25;3.25;;;1.80;;
46765;SDS011;32527;51.986;5.842;2022-07-03T00:11:50;3.00;;;1.88;;
46765;SDS011;32527;51.986;5.842;2022-07-03T00:14:16;3.75;;;2.13;;
46765;SDS011;32527;51.986;5.842;2022-07-03T00:16:42;2.13;;;1.33;;
46765;SDS011;32527;51.986;5.842;2022-07-03T00:19:08;3.78;;;1.60;;
46765;SDS011;32527;51.986;5.842;2022-07-03T00:21:35;3.30;;;1.70;;
46765;SDS011;32527;51.986;5.842;2022-07-03T00:26:33;3.63;;;2.00;;
46765;SDS011;32527;51.986;5.842;2022-07-03T00:29:01;2.58;;;1.52;;
46765;SDS011;32527;51.986;5.842;2022-07-03T00:31:29;3.72;;;1.52;;
46765;SDS011;32527;51.986;5.842;2022-07-03T00:33:57;5.90;;;2.58;;
46765;SDS011;32527;51.986;5.842;2022-07-03T00:36:29;4.55;;;2.15;;
46765;SDS011;32527;51.986;5.842;2022-07-03T00:38:59;5.07;;;1.95;;
46765;SDS011;32527;51.986;5.842;2022-07-03T00:41:34;4.00;;;2.33;;
46765;SDS011;32527;51.986;5.842;2022-07-03T00:44:00;5.75;;;2.05;;
46765;SDS011;32527;51.986;5.842;2022-07-03T00:46:27;2.55;;;1.83;;
46765;SDS011;32527;51.986;5.842;2022-07-03T00:48:54;3.53;;;2.50;;
46765;SDS011;32527;51.986;5.842;2022-07-03T00:51:26;6.10;;;2.20;;
46765;SDS011;32527;51.986;5.842;2022-07-03T00:53:55;5.93;;;2.13;;
46765;SDS011;32527;51.986;5.842;2022-07-03T00:56:28;4.10;;;2.25;;
46765;SDS011;32527;51.986;5.842;2022-07-03T00:58:57;3.58;;;2.30;;
46765;SDS011;32527;51.986;5.842;2022-07-03T01:01:26;4.72;;;2.20;;
46765;SDS011;32527;51.986;5.842;2022-07-03T01:04:20;4.45;;;2.25;;
46765;SDS011;32527;51.986;5.842;2022-07-03T01:07:06;5.95;;;2.50;;
46765;SDS011;32527;51.986;5.842;2022-07-03T01:12:02;4.65;;;2.63;;
46765;SDS011;32527;51.986;5.842;2022-07-03T01:14:51;4.25;;;2.60;;
46765;SDS011;32527;51.986;5.842;2022-07-03T01:18:13;4.25;;;2.40;;
46765;SDS011;32527;51.986;5.842;2022-07-03T01:20:28;5.50;;;2.80;;
46765;SDS011;32527;51.986;5.842;2022-07-03T01:23:00;6.85;;;2.80;;
46765;SDS011;32527;51.986;5.842;2022-07-03T01:28:15;8.10;;;3.10;;
46765;SDS011;32527;51.986;5.842;2022-07-03T01:30:44;7.50;;;2.95;;
46765;SDS011;32527;51.986;5.842;2022-07-03T01:33:23;4.80;;;2.80;;
46765;SDS011;32527;51.986;5.842;2022-07-03T01:35:58;7.38;;;3.08;;
46765;SDS011;32527;51.986;5.842;2022-07-03T01:38:34;7.72;;;3.30;;
46765;SDS011;32527;51.986;5.842;2022-07-03T01:41:05;8.00;;;3.78;;
46765;SDS011;32527;51.986;5.842;2022-07-03T01:43:39;8.38;;;3.95;;
46765;SDS011;32527;51.986;5.842;2022-07-03T01:46:11;6.90;;;3.90;;
46765;SDS011;32527;51.986;5.842;2022-07-03T01:48:37;8.05;;;5.18;;
46765;SDS011;32527;51.986;5.842;2022-07-03T01:51:07;7.45;;;4.22;;
46765;SDS011;32527;51.986;5.842;2022-07-03T01:53:37;7.97;;;5.10;;
46765;SDS011;32527;51.986;5.842;2022-07-03T01:56:08;9.18;;;4.60;;
46765;SDS011;32527;51.986;5.842;2022-07-03T01:58:35;10.07;;;5.85;;
46765;SDS011;32527;51.986;5.842;2022-07-03T02:01:16;15.23;;;6.22;;
46765;SDS011;32527;51.986;5.842;2022-07-03T02:03:46;6.45;;;4.82;;
46765;SDS011;32527;51.986;5.842;2022-07-03T02:06:35;8.60;;;5.18;;
46765;SDS011;32527;51.986;5.842;2022-07-03T02:09:07;10.90;;;6.40;;
46765;SDS011;32527;51.986;5.842;2022-07-03T02:11:39;9.48;;;5.97;;
46765;SDS011;32527;51.986;5.842;2022-07-03T02:19:16;9.10;;;6.50;;
46765;SDS011;32527;51.986;5.842;2022-07-03T02:21:47;8.82;;;5.93;;
46765;SDS011;32527;51.986;5.842;2022-07-03T02:24:22;6.35;;;5.25;;
46765;SDS011;32527;51.986;5.842;2022-07-03T02:29:43;9.88;;;7.05;;
46765;SDS011;32527;51.986;5.842;2022-07-03T02:32:13;6.90;;;5.63;;
46765;SDS011;32527;51.986;5.842;2022-07-03T02:34:45;8.15;;;6.03;;
46765;SDS011;32527;51.986;5.842;2022-07-03T02:37:20;10.43;;;5.85;;
46765;SDS011;32527;51.986;5.842;2022-07-03T02:39:52;9.75;;;6.50;;
46765;SDS011;32527;51.986;5.842;2022-07-03T02:42:28;9.07;;;6.60;;
46765;SDS011;32527;51.986;5.842;2022-07-03T02:44:57;12.23;;;6.78;;
46765;SDS011;32527;51.986;5.842;2022-07-03T02:50:08;8.75;;;7.13;;
46765;SDS011;32527;51.986;5.842;2022-07-03T02:52:49;11.07;;;6.70;;
46765;SDS011;32527;51.986;5.842;2022-07-03T03:03:34;9.35;;;6.45;;
46765;SDS011;32527;51.986;5.842;2022-07-03T03:06:03;8.73;;;7.15;;
46765;SDS011;32527;51.986;5.842;2022-07-03T03:08:35;12.20;;;7.38;;
46765;SDS011;32527;51.986;5.842;2022-07-03T03:11:07;12.45;;;7.60;;
46765;SDS011;32527;51.986;5.842;2022-07-03T03:13:38;10.07;;;6.85;;
46765;SDS011;32527;51.986;5.842;2022-07-03T03:16:11;16.55;;;7.30;;
46765;SDS011;32527;51.986;5.842;2022-07-03T03:18:38;13.70;;;6.82;;
46765;SDS011;32527;51.986;5.842;2022-07-03T03:21:07;10.15;;;7.15;;
46765;SDS011;32527;51.986;5.842;2022-07-03T03:26:14;9.77;;;6.40;;
46765;SDS011;32527;51.986;5.842;2022-07-03T03:28:51;10.00;;;7.20;;
46765;SDS011;32527;51.986;5.842;2022-07-03T03:31:17;7.70;;;6.70;;
46765;SDS011;32527;51.986;5.842;2022-07-03T03:33:47;11.65;;;7.50;;
46765;SDS011;32527;51.986;5.842;2022-07-03T03:36:15;10.07;;;6.55;;
46765;SDS011;32527;51.986;5.842;2022-07-03T03:38:42;11.45;;;6.85;;
46765;SDS011;32527;51.986;5.842;2022-07-03T03:41:08;7.28;;;6.07;;
46765;SDS011;32527;51.986;5.842;2022-07-03T03:43:34;10.75;;;7.05;;
46765;SDS011;32527;51.986;5.842;2022-07-03T03:46:00;10.45;;;7.18;;
46765;SDS011;32527;51.986;5.842;2022-07-03T03:48:27;8.60;;;7.40;;
46765;SDS011;32527;51.986;5.842;2022-07-03T03:50:55;10.35;;;7.60;;
46765;SDS011;32527;51.986;5.842;2022-07-03T03:53:21;9.27;;;6.10;;
46765;SDS011;32527;51.986;5.842;2022-07-03T03:55:58;11.15;;;7.38;;
46765;SDS011;32527;51.986;5.842;2022-07-03T03:58:25;9.32;;;6.90;;
46765;SDS011;32527;51.986;5.842;2022-07-03T04:00:50;11.45;;;6.65;;
46765;SDS011;32527;51.986;5.842;2022-07-03T04:03:18;14.68;;;7.28;;
46765;SDS011;32527;51.986;5.842;2022-07-03T04:05:44;9.05;;;6.32;;
46765;SDS011;32527;51.986;5.842;2022-07-03T04:08:10;8.02;;;5.80;;
46765;SDS011;32527;51.986;5.842;2022-07-03T04:10:35;7.43;;;6.10;;
46765;SDS011;32527;51.986;5.842;2022-07-03T04:13:01;9.35;;;5.93;;
46765;SDS011;32527;51.986;5.842;2022-07-03T04:15:27;8.13;;;4.95;;
46765;SDS011;32527;51.986;5.842;2022-07-03T04:17:52;8.55;;;5.60;;
46765;SDS011;32527;51.986;5.842;2022-07-03T04:20:18;7.50;;;5.40;;
46765;SDS011;32527;51.986;5.842;2022-07-03T04:22:44;9.18;;;7.03;;
46765;SDS011;32527;51.986;5.842;2022-07-03T04:25:09;7.97;;;5.05;;
46765;SDS011;32527;51.986;5.842;2022-07-03T04:27:35;9.13;;;5.00;;
46765;SDS011;32527;51.986;5.842;2022-07-03T04:30:01;6.95;;;4.85;;
46765;SDS011;32527;51.986;5.842;2022-07-03T04:32:27;10.75;;;4.70;;
46765;SDS011;32527;51.986;5.842;2022-07-03T04:34:53;7.88;;;5.40;;
46765;SDS011;32527;51.986;5.842;2022-07-03T04:37:18;8.48;;;4.72;;
46765;SDS011;32527;51.986;5.842;2022-07-03T04:39:44;10.05;;;4.88;;
46765;SDS011;32527;51.986;5.842;2022-07-03T04:42:10;5.57;;;4.00;;
46765;SDS011;32527;51.986;5.842;2022-07-03T04:44:35;8.48;;;3.75;;
46765;SDS011;32527;51.986;5.842;2022-07-03T04:47:01;7.10;;;3.83;;
46765;SDS011;32527;51.986;5.842;2022-07-03T04:49:27;7.75;;;3.72;;
46765;SDS011;32527;51.986;5.842;2022-07-03T04:51:53;8.13;;;3.97;;
46765;SDS011;32527;51.986;5.842;2022-07-03T04:54:18;9.65;;;3.97;;
46765;SDS011;32527;51.986;5.842;2022-07-03T04:56:44;5.78;;;3.20;;
46765;SDS011;32527;51.986;5.842;2022-07-03T04:59:10;6.38;;;3.55;;
46765;SDS011;32527;51.986;5.842;2022-07-03T05:01:35;8.27;;;3.42;;
46765;SDS011;32527;51.986;5.842;2022-07-03T05:04:01;7.05;;;2.80;;
46765;SDS011;32527;51.986;5.842;2022-07-03T05:06:27;5.38;;;2.47;;
46765;SDS011;32527;51.986;5.842;2022-07-03T05:08:52;5.03;;;2.63;;
46765;SDS011;32527;51.986;5.842;2022-07-03T05:11:18;8.93;;;2.95;;
46765;SDS011;32527;51.986;5.842;2022-07-03T05:13:44;7.00;;;3.00;;
46765;SDS011;32527;51.986;5.842;2022-07-03T05:16:09;8.75;;;4.35;;
46765;SDS011;32527;51.986;5.842;2022-07-03T05:18:35;6.15;;;2.40;;
46765;SDS011;32527;51.986;5.842;2022-07-03T05:21:01;5.25;;;2.50;;
46765;SDS011;32527;51.986;5.842;2022-07-03T05:23:27;5.72;;;2.67;;
46765;SDS011;32527;51.986;5.842;2022-07-03T05:25:53;5.78;;;2.13;;
46765;SDS011;32527;51.986;5.842;2022-07-03T05:28:20;6.32;;;2.45;;
46765;SDS011;32527;51.986;5.842;2022-07-03T05:30:46;5.45;;;2.20;;
46765;SDS011;32527;51.986;5.842;2022-07-03T05:33:11;3.78;;;2.42;;
46765;SDS011;32527;51.986;5.842;2022-07-03T05:35:37;4.28;;;2.40;;
46765;SDS011;32527;51.986;5.842;2022-07-03T05:38:03;7.32;;;2.35;;
46765;SDS011;32527;51.986;5.842;2022-07-03T05:40:28;6.80;;;2.47;;
46765;SDS011;32527;51.986;5.842;2022-07-03T05:42:54;4.38;;;2.13;;
46765;SDS011;32527;51.986;5.842;2022-07-03T05:45:20;4.10;;;2.22;;
46765;SDS011;32527;51.986;5.842;2022-07-03T05:47:46;4.75;;;2.20;;
46765;SDS011;32527;51.986;5.842;2022-07-03T05:50:12;6.43;;;2.60;;
46765;SDS011;32527;51.986;5.842;2022-07-03T05:52:37;5.93;;;2.65;;
46765;SDS011;32527;51.986;5.842;2022-07-03T05:55:03;5.28;;;2.58;;
46765;SDS011;32527;51.986;5.842;2022-07-03T05:57:29;4.80;;;2.45;;
46765;SDS011;32527;51.986;5.842;2022-07-03T05:59:55;4.47;;;2.80;;
46765;SDS011;32527;51.986;5.842;2022-07-03T06:02:21;5.70;;;2.88;;
46765;SDS011;32527;51.986;5.842;2022-07-03T06:04:46;4.55;;;2.58;;
46765;SDS011;32527;51.986;5.842;2022-07-03T06:07:12;5.25;;;2.60;;
46765;SDS011;32527;51.986;5.842;2022-07-03T06:09:38;4.45;;;2.17;;
46765;SDS011;32527;51.986;5.842;2022-07-03T06:12:03;7.30;;;2.53;;
46765;SDS011;32527;51.986;5.842;2022-07-03T06:14:29;3.47;;;1.77;;
46765;SDS011;32527;51.986;5.842;2022-07-03T06:16:55;4.65;;;2.10;;
46765;SDS011;32527;51.986;5.842;2022-07-03T06:19:20;5.05;;;1.85;;
46765;SDS011;32527;51.986;5.842;2022-07-03T06:21:46;6.07;;;2.35;;
46765;SDS011;32527;51.986;5.842;2022-07-03T06:24:12;5.93;;;2.15;;
46765;SDS011;32527;51.986;5.842;2022-07-03T06:26:37;2.92;;;1.73;;
46765;SDS011;32527;51.986;5.842;2022-07-03T06:29:03;4.93;;;1.90;;
46765;SDS011;32527;51.986;5.842;2022-07-03T06:31:29;7.03;;;2.03;;
46765;SDS011;32527;51.986;5.842;2022-07-03T06:33:56;6.45;;;1.80;;
46765;SDS011;32527;51.986;5.842;2022-07-03T06:36:22;3.50;;;1.50;;
46765;SDS011;32527;51.986;5.842;2022-07-03T06:38:48;6.38;;;1.92;;
46765;SDS011;32527;51.986;5.842;2022-07-03T06:41:14;5.97;;;1.77;;
46765;SDS011;32527;51.986;5.842;2022-07-03T06:43:39;3.75;;;1.48;;
46765;SDS011;32527;51.986;5.842;2022-07-03T06:46:05;7.25;;;1.90;;
46765;SDS011;32527;51.986;5.842;2022-07-03T06:48:30;6.53;;;2.05;;
46765;SDS011;32527;51.986;5.842;2022-07-03T06:50:56;6.75;;;2.55;;
46765;SDS011;32527;51.986;5.842;2022-07-03T06:53:22;4.88;;;2.00;;
46765;SDS011;32527;51.986;5.842;2022-07-03T06:55:47;3.05;;;1.42;;
46765;SDS011;32527;51.986;5.842;2022-07-03T06:58:13;4.10;;;1.77;;
46765;SDS011;32527;51.986;5.842;2022-07-03T07:00:39;3.47;;;1.52;;
46765;SDS011;32527;51.986;5.842;2022-07-03T07:03:05;4.70;;;1.90;;
46765;SDS011;32527;51.986;5.842;2022-07-03T07:05:31;5.40;;;1.80;;
46765;SDS011;32527;51.986;5.842;2022-07-03T07:07:57;5.93;;;1.85;;
46765;SDS011;32527;51.986;5.842;2022-07-03T07:10:22;5.78;;;1.83;;
46765;SDS011;32527;51.986;5.842;2022-07-03T07:12:48;5.38;;;2.03;;
46765;SDS011;32527;51.986;5.842;2022-07-03T07:15:14;5.05;;;1.60;;
46765;SDS011;32527;51.986;5.842;2022-07-03T07:17:40;3.25;;;1.63;;
46765;SDS011;32527;51.986;5.842;2022-07-03T07:20:06;4.10;;;1.60;;
46765;SDS011;32527;51.986;5.842;2022-07-03T07:22:32;4.20;;;1.48;;
46765;SDS011;32527;51.986;5.842;2022-07-03T07:24:58;3.53;;;1.40;;
46765;SDS011;32527;51.986;5.842;2022-07-03T07:27:24;4.40;;;1.42;;
46765;SDS011;32527;51.986;5.842;2022-07-03T07:29:50;3.25;;;1.50;;
46765;SDS011;32527;51.986;5.842;2022-07-03T07:32:15;3.65;;;1.67;;
46765;SDS011;32527;51.986;5.842;2022-07-03T07:34:41;4.72;;;1.35;;
46765;SDS011;32527;51.986;5.842;2022-07-03T07:37:07;6.53;;;1.52;;
46765;SDS011;32527;51.986;5.842;2022-07-03T07:39:32;3.78;;;1.38;;
46765;SDS011;32527;51.986;5.842;2022-07-03T07:41:58;4.10;;;1.23;;
46765;SDS011;32527;51.986;5.842;2022-07-03T07:44:24;7.00;;;1.48;;
46765;SDS011;32527;51.986;5.842;2022-07-03T07:46:49;5.35;;;1.77;;
46765;SDS011;32527;51.986;5.842;2022-07-03T07:49:15;3.13;;;1.48;;
46765;SDS011;32527;51.986;5.842;2022-07-03T07:51:41;4.72;;;1.70;;
46765;SDS011;32527;51.986;5.842;2022-07-03T07:54:07;4.10;;;1.70;;
46765;SDS011;32527;51.986;5.842;2022-07-03T07:56:33;7.18;;;1.58;;
46765;SDS011;32527;51.986;5.842;2022-07-03T07:58:58;4.00;;;1.45;;
46765;SDS011;32527;51.986;5.842;2022-07-03T08:01:25;6.95;;;2.97;;
46765;SDS011;32527;51.986;5.842;2022-07-03T08:04:09;5.45;;;2.10;;
46765;SDS011;32527;51.986;5.842;2022-07-03T08:06:53;4.28;;;1.98;;
46765;SDS011;32527;51.986;5.842;2022-07-03T08:09:19;2.50;;;1.25;;
46765;SDS011;32527;51.986;5.842;2022-07-03T08:11:44;3.67;;;1.83;;
46765;SDS011;32527;51.986;5.842;2022-07-03T08:14:10;2.83;;;1.42;;
46765;SDS011;32527;51.986;5.842;2022-07-03T08:16:36;4.35;;;1.73;;
46765;SDS011;32527;51.986;5.842;2022-07-03T08:19:06;5.15;;;1.60;;
46765;SDS011;32527;51.986;5.842;2022-07-03T08:21:31;3.60;;;1.23;;
46765;SDS011;32527;51.986;5.842;2022-07-03T08:23:57;4.57;;;1.58;;
46765;SDS011;32527;51.986;5.842;2022-07-03T08:26:23;6.03;;;1.67;;
46765;SDS011;32527;51.986;5.842;2022-07-03T08:28:49;5.18;;;1.65;;
46765;SDS011;32527;51.986;5.842;2022-07-03T08:31:14;4.47;;;1.80;;
46765;SDS011;32527;51.986;5.842;2022-07-03T08:33:40;5.70;;;1.73;;
46765;SDS011;32527;51.986;5.842;2022-07-03T08:36:06;3.55;;;1.90;;
46765;SDS011;32527;51.986;5.842;2022-07-03T08:38:32;3.88;;;1.80;;
46765;SDS011;32527;51.986;5.842;2022-07-03T08:41:02;3.72;;;1.55;;
46765;SDS011;32527;51.986;5.842;2022-07-03T08:43:29;6.50;;;1.55;;
46765;SDS011;32527;51.986;5.842;2022-07-03T08:45:54;3.25;;;1.55;;
46765;SDS011;32527;51.986;5.842;2022-07-03T08:48:22;4.63;;;2.10;;
46765;SDS011;32527;51.986;5.842;2022-07-03T08:50:50;5.15;;;1.58;;
46765;SDS011;32527;51.986;5.842;2022-07-03T08:53:17;4.07;;;1.55;;
46765;SDS011;32527;51.986;5.842;2022-07-03T08:55:44;3.15;;;1.67;;
46765;SDS011;32527;51.986;5.842;2022-07-03T08:58:11;4.10;;;1.30;;
46765;SDS011;32527;51.986;5.842;2022-07-03T09:00:39;4.88;;;1.75;;
46765;SDS011;32527;51.986;5.842;2022-07-03T09:03:08;7.55;;;2.25;;
46765;SDS011;32527;51.986;5.842;2022-07-03T09:05:35;5.93;;;2.10;;
46765;SDS011;32527;51.986;5.842;2022-07-03T09:08:01;5.63;;;2.00;;
46765;SDS011;32527;51.986;5.842;2022-07-03T09:10:27;4.88;;;1.85;;
46765;SDS011;32527;51.986;5.842;2022-07-03T09:12:53;4.13;;;1.70;;
46765;SDS011;32527;51.986;5.842;2022-07-03T09:15:20;4.60;;;1.95;;
46765;SDS011;32527;51.986;5.842;2022-07-03T09:18:00;4.20;;;1.58;;
46765;SDS011;32527;51.986;5.842;2022-07-03T09:20:37;4.13;;;1.33;;
46765;SDS011;32527;51.986;5.842;2022-07-03T09:25:57;3.28;;;1.55;;
46765;SDS011;32527;51.986;5.842;2022-07-03T09:28:46;4.95;;;1.60;;
46765;SDS011;32527;51.986;5.842;2022-07-03T09:31:12;4.20;;;2.28;;
46765;SDS011;32527;51.986;5.842;2022-07-03T09:33:58;6.00;;;1.77;;
46765;SDS011;32527;51.986;5.842;2022-07-03T09:39:21;5.35;;;2.05;;
46765;SDS011;32527;51.986;5.842;2022-07-03T09:42:01;8.90;;;3.33;;
46765;SDS011;32527;51.986;5.842;2022-07-03T09:44:40;5.28;;;1.80;;
46765;SDS011;32527;51.986;5.842;2022-07-03T09:47:16;3.47;;;1.42;;
46765;SDS011;32527;51.986;5.842;2022-07-03T09:49:52;6.20;;;1.75;;
46765;SDS011;32527;51.986;5.842;2022-07-03T09:57:38;5.40;;;1.63;;
46765;SDS011;32527;51.986;5.842;2022-07-03T10:00:23;7.80;;;2.25;;
46765;SDS011;32527;51.986;5.842;2022-07-03T10:05:20;4.05;;;1.30;;
46765;SDS011;32527;51.986;5.842;2022-07-03T10:08:06;4.55;;;1.65;;
46765;SDS011;32527;51.986;5.842;2022-07-03T10:10:37;3.35;;;1.30;;
46765;SDS011;32527;51.986;5.842;2022-07-03T10:13:04;3.78;;;1.60;;
46765;SDS011;32527;51.986;5.842;2022-07-03T10:15:31;7.57;;;1.83;;
46765;SDS011;32527;51.986;5.842;2022-07-03T10:17:58;3.40;;;1.50;;
46765;SDS011;32527;51.986;5.842;2022-07-03T10:20:26;3.05;;;1.17;;
46765;SDS011;32527;51.986;5.842;2022-07-03T10:22:56;4.93;;;2.22;;
46765;SDS011;32527;51.986;5.842;2022-07-03T10:25:22;4.07;;;1.40;;
46765;SDS011;32527;51.986;5.842;2022-07-03T10:27:48;4.32;;;1.10;;
46765;SDS011;32527;51.986;5.842;2022-07-03T10:30:15;2.85;;;1.40;;
46765;SDS011;32527;51.986;5.842;2022-07-03T10:32:44;3.83;;;1.52;;
46765;SDS011;32527;51.986;5.842;2022-07-03T10:35:15;5.85;;;2.03;;
46765;SDS011;32527;51.986;5.842;2022-07-03T10:41:12;5.72;;;2.10;;
46765;SDS011;32527;51.986;5.842;2022-07-03T10:43:49;6.75;;;2.00;;
46765;SDS011;32527;51.986;5.842;2022-07-03T10:46:35;4.88;;;1.77;;
46765;SDS011;32527;51.986;5.842;2022-07-03T10:49:05;5.00;;;1.67;;
46765;SDS011;32527;51.986;5.842;2022-07-03T11:07:29;4.65;;;1.05;;
46765;SDS011;32527;51.986;5.842;2022-07-03T11:13:12;5.57;;;1.33;;
46765;SDS011;32527;51.986;5.842;2022-07-03T11:15:43;3.60;;;1.42;;
46765;SDS011;32527;51.986;5.842;2022-07-03T11:18:32;3.35;;;1.42;;
46765;SDS011;32527;51.986;5.842;2022-07-03T11:21:08;3.80;;;1.50;;
46765;SDS011;32527;51.986;5.842;2022-07-03T11:23:44;4.32;;;1.20;;
46765;SDS011;32527;51.986;5.842;2022-07-03T11:26:23;2.80;;;0.93;;
46765;SDS011;32527;51.986;5.842;2022-07-03T11:28:52;5.63;;;1.63;;
46765;SDS011;32527;51.986;5.842;2022-07-03T11:31:19;8.05;;;1.80;;
46765;SDS011;32527;51.986;5.842;2022-07-03T11:43:55;2.15;;;1.10;;
46765;SDS011;32527;51.986;5.842;2022-07-03T11:46:26;2.05;;;0.90;;
46765;SDS011;32527;51.986;5.842;2022-07-03T11:49:06;2.38;;;0.85;;
46765;SDS011;32527;51.986;5.842;2022-07-03T11:51:34;6.43;;;2.55;;
46765;SDS011;32527;51.986;5.842;2022-07-03T11:54:02;4.30;;;1.45;;
46765;SDS011;32527;51.986;5.842;2022-07-03T11:56:28;3.47;;;1.15;;
46765;SDS011;32527;51.986;5.842;2022-07-03T11:58:55;3.55;;;1.40;;
46765;SDS011;32527;51.986;5.842;2022-07-03T12:03:47;1.45;;;0.77;;
46765;SDS011;32527;51.986;5.842;2022-07-03T12:06:13;3.35;;;1.50;;
46765;SDS011;32527;51.986;5.842;2022-07-03T12:08:39;2.95;;;1.15;;
46765;SDS011;32527;51.986;5.842;2022-07-03T12:11:08;5.78;;;1.42;;
46765;SDS011;32527;51.986;5.842;2022-07-03T12:13:34;2.80;;;1.13;;
46765;SDS011;32527;51.986;5.842;2022-07-03T12:16:02;3.72;;;1.60;;
46765;SDS011;32527;51.986;5.842;2022-07-03T12:18:40;2.05;;;1.40;;
46765;SDS011;32527;51.986;5.842;2022-07-03T12:21:09;2.75;;;1.38;;
46765;SDS011;32527;51.986;5.842;2022-07-03T12:23:45;1.70;;;1.00;;
46765;SDS011;32527;51.986;5.842;2022-07-03T12:26:13;2.25;;;1.08;;
46765;SDS011;32527;51.986;5.842;2022-07-03T12:28:39;3.15;;;1.30;;
46765;SDS011;32527;51.986;5.842;2022-07-03T12:31:05;4.35;;;1.73;;
46765;SDS011;32527;51.986;5.842;2022-07-03T12:33:31;2.47;;;1.55;;
46765;SDS011;32527;51.986;5.842;2022-07-03T12:36:07;1.60;;;1.10;;
46765;SDS011;32527;51.986;5.842;2022-07-03T12:38:37;5.35;;;1.50;;
46765;SDS011;32527;51.986;5.842;2022-07-03T12:43:42;4.22;;;1.60;;
46765;SDS011;32527;51.986;5.842;2022-07-03T12:46:22;4.97;;;1.33;;
46765;SDS011;32527;51.986;5.842;2022-07-03T12:48:53;4.50;;;1.75;;
46765;SDS011;32527;51.986;5.842;2022-07-03T12:51:36;4.25;;;1.60;;
46765;SDS011;32527;51.986;5.842;2022-07-03T12:54:21;3.08;;;1.45;;
46765;SDS011;32527;51.986;5.842;2022-07-03T12:57:08;4.28;;;1.55;;
46765;SDS011;32527;51.986;5.842;2022-07-03T13:00:12;16.30;;;9.57;;
46765;SDS011;32527;51.986;5.842;2022-07-03T13:02:42;4.78;;;1.48;;
46765;SDS011;32527;51.986;5.842;2022-07-03T13:05:19;5.53;;;1.70;;
46765;SDS011;32527;51.986;5.842;2022-07-03T13:07:51;2.58;;;1.60;;
46765;SDS011;32527;51.986;5.842;2022-07-03T13:10:19;3.90;;;1.60;;
46765;SDS011;32527;51.986;5.842;2022-07-03T13:15:19;3.28;;;1.17;;
46765;SDS011;32527;51.986;5.842;2022-07-03T13:20:18;4.13;;;2.25;;
46765;SDS011;32527;51.986;5.842;2022-07-03T13:22:48;3.72;;;1.50;;
46765;SDS011;32527;51.986;5.842;2022-07-03T13:25:18;5.13;;;1.70;;
46765;SDS011;32527;51.986;5.842;2022-07-03T13:27:44;3.58;;;1.83;;
46765;SDS011;32527;51.986;5.842;2022-07-03T13:30:14;3.33;;;1.60;;
46765;SDS011;32527;51.986;5.842;2022-07-03T13:32:41;3.92;;;1.85;;
46765;SDS011;32527;51.986;5.842;2022-07-03T13:35:07;6.38;;;1.63;;
46765;SDS011;32527;51.986;5.842;2022-07-03T13:37:34;3.42;;;1.50;;
46765;SDS011;32527;51.986;5.842;2022-07-03T13:40:03;4.93;;;1.70;;
46765;SDS011;32527;51.986;5.842;2022-07-03T13:42:30;4.72;;;1.50;;
46765;SDS011;32527;51.986;5.842;2022-07-03T13:44:56;4.32;;;1.73;;
46765;SDS011;32527;51.986;5.842;2022-07-03T13:47:21;2.60;;;1.13;;
46765;SDS011;32527;51.986;5.842;2022-07-03T13:49:48;3.00;;;1.25;;
46765;SDS011;32527;51.986;5.842;2022-07-03T13:52:14;2.88;;;1.33;;
46765;SDS011;32527;51.986;5.842;2022-07-03T13:54:40;2.72;;;1.25;;
46765;SDS011;32527;51.986;5.842;2022-07-03T13:57:05;3.22;;;1.40;;
46765;SDS011;32527;51.986;5.842;2022-07-03T13:59:31;2.78;;;1.70;;
46765;SDS011;32527;51.986;5.842;2022-07-03T14:01:57;4.60;;;1.77;;
46765;SDS011;32527;51.986;5.842;2022-07-03T14:04:23;2.00;;;1.52;;
46765;SDS011;32527;51.986;5.842;2022-07-03T14:06:49;2.17;;;1.33;;
46765;SDS011;32527;51.986;5.842;2022-07-03T14:09:15;2.55;;;1.45;;
46765;SDS011;32527;51.986;5.842;2022-07-03T14:11:41;3.20;;;1.30;;
46765;SDS011;32527;51.986;5.842;2022-07-03T14:14:06;2.72;;;1.35;;
46765;SDS011;32527;51.986;5.842;2022-07-03T14:16:32;1.80;;;1.05;;
46765;SDS011;32527;51.986;5.842;2022-07-03T14:18:58;3.33;;;1.60;;
46765;SDS011;32527;51.986;5.842;2022-07-03T14:21:24;3.42;;;1.90;;
46765;SDS011;32527;51.986;5.842;2022-07-03T14:23:49;5.18;;;2.30;;
46765;SDS011;32527;51.986;5.842;2022-07-03T14:26:15;3.25;;;1.70;;
46765;SDS011;32527;51.986;5.842;2022-07-03T14:29:01;4.00;;;1.65;;
46765;SDS011;32527;51.986;5.842;2022-07-03T14:31:46;5.07;;;2.00;;
46765;SDS011;32527;51.986;5.842;2022-07-03T14:34:30;7.15;;;2.30;;
46765;SDS011;32527;51.986;5.842;2022-07-03T14:36:55;4.35;;;2.22;;
46765;SDS011;32527;51.986;5.842;2022-07-03T14:39:21;2.80;;;1.58;;
46765;SDS011;32527;51.986;5.842;2022-07-03T14:41:46;3.65;;;1.50;;
46765;SDS011;32527;51.986;5.842;2022-07-03T14:44:14;4.18;;;1.50;;
46765;SDS011;32527;51.986;5.842;2022-07-03T14:46:39;2.22;;;1.25;;
46765;SDS011;32527;51.986;5.842;2022-07-03T14:49:06;4.70;;;1.92;;
46765;SDS011;32527;51.986;5.842;2022-07-03T14:51:31;3.38;;;1.77;;
46765;SDS011;32527;51.986;5.842;2022-07-03T14:53:57;4.00;;;1.92;;
46765;SDS011;32527;51.986;5.842;2022-07-03T14:56:23;7.35;;;1.85;;
46765;SDS011;32527;51.986;5.842;2022-07-03T14:58:48;6.95;;;2.10;;
46765;SDS011;32527;51.986;5.842;2022-07-03T15:01:18;6.35;;;1.83;;
46765;SDS011;32527;51.986;5.842;2022-07-03T15:06:53;3.83;;;2.20;;
46765;SDS011;32527;51.986;5.842;2022-07-03T15:09:23;3.00;;;1.70;;
46765;SDS011;32527;51.986;5.842;2022-07-03T15:11:55;4.40;;;1.85;;
46765;SDS011;32527;51.986;5.842;2022-07-03T15:14:42;4.80;;;1.75;;
46765;SDS011;32527;51.986;5.842;2022-07-03T15:17:08;4.50;;;2.17;;
46765;SDS011;32527;51.986;5.842;2022-07-03T15:19:34;5.93;;;3.58;;
46765;SDS011;32527;51.986;5.842;2022-07-03T15:22:01;5.90;;;2.15;;
46765;SDS011;32527;51.986;5.842;2022-07-03T15:24:32;5.47;;;1.92;;
46765;SDS011;32527;51.986;5.842;2022-07-03T15:27:00;4.40;;;1.38;;
46765;SDS011;32527;51.986;5.842;2022-07-03T15:29:26;2.88;;;1.63;;
46765;SDS011;32527;51.986;5.842;2022-07-03T15:31:52;7.50;;;1.92;;
46765;SDS011;32527;51.986;5.842;2022-07-03T15:34:19;4.03;;;1.77;;
46765;SDS011;32527;51.986;5.842;2022-07-03T15:36:45;3.50;;;2.17;;
46765;SDS011;32527;51.986;5.842;2022-07-03T15:39:24;6.93;;;2.08;;
46765;SDS011;32527;51.986;5.842;2022-07-03T15:42:05;5.13;;;1.88;;
46765;SDS011;32527;51.986;5.842;2022-07-03T15:49:56;5.88;;;1.77;;
46765;SDS011;32527;51.986;5.842;2022-07-03T15:52:24;4.63;;;1.80;;
46765;SDS011;32527;51.986;5.842;2022-07-03T15:55:05;3.15;;;1.52;;
46765;SDS011;32527;51.986;5.842;2022-07-03T15:57:39;2.13;;;1.40;;
46765;SDS011;32527;51.986;5.842;2022-07-03T16:00:30;4.50;;;1.60;;
46765;SDS011;32527;51.986;5.842;2022-07-03T16:03:16;4.55;;;1.98;;
46765;SDS011;32527;51.986;5.842;2022-07-03T16:05:53;5.90;;;1.80;;
46765;SDS011;32527;51.986;5.842;2022-07-03T16:08:20;6.45;;;2.00;;
46765;SDS011;32527;51.986;5.842;2022-07-03T16:10:50;3.20;;;1.65;;
46765;SDS011;32527;51.986;5.842;2022-07-03T16:13:16;3.28;;;1.40;;
46765;SDS011;32527;51.986;5.842;2022-07-03T16:15:49;2.67;;;1.25;;
46765;SDS011;32527;51.986;5.842;2022-07-03T16:18:16;5.00;;;1.67;;
46765;SDS011;32527;51.986;5.842;2022-07-03T16:20:43;7.55;;;1.77;;
46765;SDS011;32527;51.986;5.842;2022-07-03T16:23:09;4.60;;;2.00;;
46765;SDS011;32527;51.986;5.842;2022-07-03T16:25:36;7.20;;;2.00;;
46765;SDS011;32527;51.986;5.842;2022-07-03T16:28:05;6.05;;;1.80;;
46765;SDS011;32527;51.986;5.842;2022-07-03T16:30:36;4.25;;;1.48;;
46765;SDS011;32527;51.986;5.842;2022-07-03T16:33:11;1.85;;;1.20;;
46765;SDS011;32527;51.986;5.842;2022-07-03T16:35:43;2.45;;;1.35;;